Time;durP1;ratioP1;P1;durP2;ratioP2;P2;SDS_P1;SDS_P2;PMS_P1;PMS_P2;Temp;Humidity;BMP_temperature;BMP_pressure;BME280_temperature;BME280_humidity;BME280_pressure;Samples;Min_cycle;Max_cycle;Signal;HPM_P1;HPM_P2
2023/12/01 00:00:44;;;;;;;23.47;13.28;;;;;;;10.42;44.98;100164.67;1667552;85;21968;-84
2023/12/01 00:03:51;;;;;;;26.95;13.93;;;;;;;10.39;44.90;100158.19;1680401;85;21264;-84
2023/12/01 00:06:57;;;;;;;25.10;14.38;;;;;;;10.17;45.11;100143.41;1680741;85;21363;-84
2023/12/01 00:10:05;;;;;;;21.62;12.20;;;;;;;10.03;45.41;100141.42;1685637;85;21275;-83
2023/12/01 00:13:10;;;;;;;24.25;13.55;;;;;;;10.31;45.00;100134.49;1679771;85;21332;-84
2023/12/01 00:16:17;;;;;;;21.75;12.70;;;;;;;10.40;44.82;100121.64;1680739;85;21313;-83
2023/12/01 00:19:22;;;;;;;20.88;11.75;;;;;;;10.40;44.89;100110.70;1680557;85;21296;-84
2023/12/01 00:22:28;;;;;;;21.90;11.68;;;;;;;10.43;44.85;100127.57;1681567;84;21367;-84
2023/12/01 00:25:35;;;;;;;20.95;12.33;;;;;;;10.45;45.04;100135.09;1685239;85;21848;-84
2023/12/01 00:28:41;;;;;;;19.77;12.40;;;;;;;10.52;45.09;100121.55;1684306;85;21336;-84
2023/12/01 00:31:46;;;;;;;20.90;12.10;;;;;;;10.24;45.58;100104.79;1684235;85;21331;-84
2023/12/01 00:34:53;;;;;;;19.65;10.88;;;;;;;10.42;45.33;100095.80;1685858;85;21606;-83
2023/12/01 00:38:00;;;;;;;19.30;11.75;;;;;;;10.32;45.58;100088.34;1683762;85;21343;-83
2023/12/01 00:41:06;;;;;;;18.07;10.50;;;;;;;10.44;45.46;100065.04;1684459;83;21291;-84
2023/12/01 00:44:14;;;;;;;21.62;12.20;;;;;;;10.52;45.27;100064.63;1684148;83;21319;-84
2023/12/01 00:47:21;;;;;;;21.50;11.93;;;;;;;10.26;45.54;100059.49;1695752;83;21833;-83
2023/12/01 00:50:28;;;;;;;18.45;10.58;;;;;;;10.09;46.21;100058.72;1672164;85;21284;-82
2023/12/01 00:53:34;;;;;;;25.17;11.78;;;;;;;10.26;45.97;100045.83;1655574;85;21327;-83
2023/12/01 00:56:41;;;;;;;19.10;12.28;;;;;;;10.16;46.17;100033.24;1672522;84;21339;-83
2023/12/01 00:59:46;;;;;;;19.00;11.50;;;;;;;10.24;46.17;100021.41;1653842;85;21319;-83
2023/12/01 01:02:52;;;;;;;18.17;11.85;;;;;;;10.21;46.17;100002.64;1685523;83;21308;-83
2023/12/01 01:05:58;;;;;;;22.60;12.00;;;;;;;10.11;46.37;100000.63;1684332;84;21856;-84
2023/12/01 01:09:05;;;;;;;24.18;13.03;;;;;;;10.14;46.49;100001.12;1685714;83;21153;-83
2023/12/01 01:12:10;;;;;;;20.57;12.03;;;;;;;10.14;46.69;99982.52;1685934;83;21343;-83
2023/12/01 01:15:17;;;;;;;20.10;12.37;;;;;;;10.14;46.90;99990.19;1671224;85;21984;-83
2023/12/01 01:18:22;;;;;;;21.42;12.75;;;;;;;10.42;46.59;99981.48;1669262;85;21323;-83
2023/12/01 01:21:29;;;;;;;21.52;13.38;;;;;;;10.47;46.50;99959.91;1684642;85;21330;-83
2023/12/01 01:24:35;;;;;;;24.07;14.55;;;;;;;10.36;46.82;99974.87;1703011;84;21709;-83
2023/12/01 01:27:40;;;;;;;21.40;12.53;;;;;;;10.59;46.57;99963.06;1696092;84;21351;-83
2023/12/01 01:30:46;;;;;;;23.50;12.85;;;;;;;10.55;46.60;99954.38;1674173;84;21335;-83
2023/12/01 01:33:54;;;;;;;19.25;12.45;;;;;;;10.55;46.67;99954.89;1707433;82;21276;-83
2023/12/01 01:37:00;;;;;;;23.83;13.03;;;;;;;10.57;46.99;99958.28;1653782;85;21335;-83
2023/12/01 01:40:07;;;;;;;21.55;13.93;;;;;;;10.62;47.00;99942.16;1636797;87;21280;-83
2023/12/01 01:43:13;;;;;;;23.00;13.43;;;;;;;10.67;47.32;99946.55;1653006;87;21324;-84
2023/12/01 01:46:20;;;;;;;21.87;13.98;;;;;;;10.60;47.53;99935.52;1679566;84;21344;-83
2023/12/01 01:49:26;;;;;;;22.93;14.47;;;;;;;10.71;47.66;99932.84;1710716;84;21296;-83
2023/12/01 01:52:33;;;;;;;23.25;15.72;;;;;;;10.89;47.38;99946.17;1684407;85;22310;-83
2023/12/01 01:55:39;;;;;;;23.67;15.80;;;;;;;11.15;46.98;99941.09;1684333;85;21300;-83
2023/12/01 01:58:47;;;;;;;25.75;15.10;;;;;;;11.23;46.90;99925.08;1629443;87;21325;-83
2023/12/01 02:01:55;;;;;;;25.57;15.18;;;;;;;11.17;46.97;99919.00;1632626;86;21877;-83
2023/12/01 02:05:01;;;;;;;23.80;15.80;;;;;;;11.35;46.83;99905.77;1659132;85;21883;-84
2023/12/01 02:08:27;;;;;;;34.10;16.15;;;;;;;11.50;46.63;99873.72;1628349;88;21884;-84
2023/12/01 02:11:35;;;;;;;25.23;15.88;;;;;;;11.55;46.42;99881.88;1627203;87;21311;-84
2023/12/01 02:14:42;;;;;;;24.20;15.78;;;;;;;11.28;47.05;99874.70;1655230;86;21315;-84
2023/12/01 02:17:49;;;;;;;22.00;15.28;;;;;;;11.40;46.89;99874.55;1693595;84;21686;-84
2023/12/01 02:20:55;;;;;;;23.87;15.45;;;;;;;11.66;46.52;99879.47;1704562;84;21295;-85
2023/12/01 02:24:03;;;;;;;23.60;15.10;;;;;;;11.67;46.47;99884.45;1691730;84;21295;-84
2023/12/01 02:27:09;;;;;;;21.95;14.80;;;;;;;12.07;45.74;99860.21;1684001;85;21330;-84
2023/12/01 02:30:17;;;;;;;21.95;15.35;;;;;;;11.78;46.44;99856.53;1685299;85;21296;-84
2023/12/01 02:33:24;;;;;;;21.87;14.95;;;;;;;11.88;46.33;99834.31;1682303;85;21363;-84
2023/12/01 02:36:30;;;;;;;20.72;14.07;;;;;;;11.78;46.51;99834.61;1683951;85;21284;-84
2023/12/01 02:39:37;;;;;;;20.60;14.78;;;;;;;11.78;46.49;99828.61;1681986;85;21884;-84
2023/12/01 02:42:44;;;;;;;23.22;14.00;;;;;;;11.79;46.60;99828.08;1685799;85;21327;-84
2023/12/01 02:45:50;;;;;;;23.02;14.28;;;;;;;11.63;46.97;99825.61;1685574;85;21854;-84
2023/12/01 02:48:58;;;;;;;24.90;15.50;;;;;;;11.61;46.99;99828.52;1665769;85;21284;-85
2023/12/01 02:52:03;;;;;;;23.27;14.13;;;;;;;11.67;47.22;99815.96;1646059;87;21899;-84
2023/12/01 02:55:10;;;;;;;16.87;12.33;;;;;;;11.83;46.88;99811.61;1683724;84;21332;-85
2023/12/01 02:58:16;;;;;;;24.02;12.47;;;;;;;11.91;46.83;99807.38;1646218;85;21342;-85
2023/12/01 03:01:24;;;;;;;19.40;12.98;;;;;;;12.12;46.67;99806.48;1684426;84;21321;-85
2023/12/01 03:04:31;;;;;;;19.20;13.18;;;;;;;12.43;46.09;99800.61;1685255;85;21331;-85
2023/12/01 03:07:38;;;;;;;18.37;12.70;;;;;;;11.89;47.00;99797.11;1685827;85;22004;-84
2023/12/01 03:10:46;;;;;;;22.95;13.98;;;;;;;11.77;47.44;99800.05;1685335;84;21335;-83
2023/12/01 03:13:54;;;;;;;17.45;12.47;;;;;;;11.65;47.76;99798.86;1684710;84;21763;-83
2023/12/01 03:17:00;;;;;;;20.72;13.13;;;;;;;11.78;47.67;99808.58;1687378;85;21304;-84
2023/12/01 03:20:11;;;;;;;20.70;13.43;;;;;;;11.77;47.74;99796.78;1686999;84;21854;-83
2023/12/01 03:23:15;;;;;;;19.00;13.60;;;;;;;11.68;47.78;99798.48;1682671;84;21319;-82
2023/12/01 03:26:22;;;;;;;20.48;13.98;;;;;;;11.67;47.83;99802.27;1677610;83;21327;-83
2023/12/01 03:29:32;;;;;;;19.65;12.88;;;;;;;11.81;47.65;99803.21;1677470;85;21321;-83
2023/12/01 03:32:38;;;;;;;24.10;12.30;;;;;;;11.90;47.58;99785.13;1676027;84;21331;-84
2023/12/01 03:35:45;;;;;;;22.20;13.68;;;;;;;11.92;47.58;99760.25;1631634;86;21286;-82
2023/12/01 03:38:50;;;;;;;19.23;12.33;;;;;;;11.74;48.02;99736.03;1647300;86;21299;-83
2023/12/01 03:41:56;;;;;;;17.73;12.07;;;;;;;11.90;47.92;99743.14;1646479;87;21737;-82
2023/12/01 03:45:06;;;;;;;19.25;12.35;;;;;;;11.99;47.94;99736.47;1645829;87;21327;-83
2023/12/01 03:48:12;;;;;;;17.82;12.15;;;;;;;12.09;47.90;99734.25;1646852;86;21852;-83
2023/12/01 03:51:22;;;;;;;19.42;13.50;;;;;;;12.27;47.58;99714.52;1646696;87;21303;-83
2023/12/01 03:54:27;;;;;;;18.12;12.28;;;;;;;12.21;47.70;99700.25;1646721;86;21307;-82
2023/12/01 03:57:35;;;;;;;18.60;12.20;;;;;;;12.38;47.48;99698.05;1646007;87;21335;-86
2023/12/01 04:00:37;;;;;;;17.12;11.85;;;;;;;12.17;47.84;99687.47;1646583;87;21806;-82
2023/12/01 04:03:44;;;;;;;20.50;12.30;;;;;;;12.26;47.84;99682.14;1648292;85;21892;-83
2023/12/01 04:06:51;;;;;;;18.65;12.93;;;;;;;12.16;48.02;99667.12;1671767;84;21319;-83
2023/12/01 04:09:51;;;;;;;17.50;12.18;;;;;;;12.32;47.82;99663.19;1672556;84;21849;-86
2023/12/01 04:13:05;;;;;;;19.42;13.03;;;;;;;12.24;48.06;99651.88;1671584;84;21315;-83
2023/12/01 04:16:08;;;;;;;23.02;12.18;;;;;;;12.29;48.06;99653.48;1670938;84;21324;-83
2023/12/01 04:19:15;;;;;;;19.70;12.03;;;;;;;12.56;47.76;99661.28;1671426;86;21355;-86
2023/12/01 04:22:20;;;;;;;17.10;11.93;;;;;;;12.78;47.26;99660.10;1671649;84;21308;-83
2023/12/01 04:25:28;;;;;;;19.30;12.58;;;;;;;12.87;47.32;99679.14;1671157;84;21312;-86
2023/12/01 04:28:34;;;;;;;16.25;11.85;;;;;;;12.85;47.33;99676.61;1658493;84;21341;-86
2023/12/01 04:31:40;;;;;;;15.78;11.45;;;;;;;13.11;46.89;99659.34;1646683;87;21359;-87
2023/12/01 04:34:48;;;;;;;15.98;11.43;;;;;;;13.01;47.13;99640.53;1646029;86;21306;-83
2023/12/01 04:37:54;;;;;;;16.05;11.15;;;;;;;13.17;46.94;99646.67;1626691;87;21944;-86
2023/12/01 04:41:01;;;;;;;17.27;11.33;;;;;;;12.94;47.62;99645.70;1637798;87;21304;-86
2023/12/01 04:44:08;;;;;;;15.88;11.22;;;;;;;13.09;47.30;99640.87;1637787;87;21312;-83
2023/12/01 04:47:15;;;;;;;16.30;11.40;;;;;;;13.05;47.36;99612.14;1638683;87;21352;-86
2023/12/01 04:50:22;;;;;;;17.32;11.57;;;;;;;12.98;47.67;99598.91;1650865;84;21869;-87
2023/12/01 04:53:28;;;;;;;17.40;12.37;;;;;;;12.92;47.86;99598.39;1671733;85;21375;-81
2023/12/01 04:56:35;;;;;;;15.98;10.95;;;;;;;13.13;47.60;99600.96;1670889;85;21310;-83
2023/12/01 04:59:41;;;;;;;14.50;10.40;;;;;;;13.32;47.36;99614.42;1671656;85;21287;-82
2023/12/01 05:02:48;;;;;;;15.40;11.75;;;;;;;13.39;47.21;99617.99;1645208;85;21375;-86
2023/12/01 05:05:54;;;;;;;15.55;10.75;;;;;;;13.59;47.09;99599.27;1638513;87;21352;-83
2023/12/01 05:09:02;;;;;;;16.77;11.65;;;;;;;13.59;47.09;99599.27;1639107;87;21317;-83
2023/12/01 05:12:09;;;;;;;15.58;10.63;;;;;;;13.81;46.78;99597.98;1617799;87;21338;-84
2023/12/01 05:15:16;;;;;;;15.70;11.83;;;;;;;14.30;45.83;99604.30;1644944;87;21324;-83
2023/12/01 05:18:22;;;;;;;16.95;12.68;;;;;;;14.29;45.81;99589.36;1637998;87;21332;-83
2023/12/01 05:21:28;;;;;;;17.17;12.40;;;;;;;14.05;46.29;99591.78;1638752;87;21328;-82
2023/12/01 05:24:34;;;;;;;20.15;13.10;;;;;;;14.10;46.46;99590.28;1618865;87;21303;-83
2023/12/01 05:27:40;;;;;;;17.75;12.35;;;;;;;14.16;46.45;99577.91;1644873;86;21359;-84
2023/12/01 05:30:49;;;;;;;15.63;11.75;;;;;;;14.49;45.87;99562.66;1653044;85;21307;-83
2023/12/01 05:33:56;;;;;;;19.85;12.03;;;;;;;14.00;46.73;99555.84;1659117;85;21296;-82
2023/12/01 05:37:04;;;;;;;18.02;12.53;;;;;;;14.38;46.23;99541.28;1664063;85;21873;-82
2023/12/01 05:40:10;;;;;;;18.65;13.43;;;;;;;13.63;47.64;99535.44;1675982;85;21245;-81
2023/12/01 05:43:17;;;;;;;18.67;13.35;;;;;;;13.48;48.49;99532.93;1645856;85;21333;-82
2023/12/01 05:46:23;;;;;;;18.50;12.93;;;;;;;13.59;48.32;99527.30;1680077;84;21296;-83
2023/12/01 05:49:30;;;;;;;15.55;12.37;;;;;;;13.83;48.04;99521.63;1680312;85;21324;-83
2023/12/01 05:52:36;;;;;;;15.60;11.65;;;;;;;14.04;47.55;99524.10;1680047;84;21367;-83
2023/12/01 05:55:42;;;;;;;15.35;12.05;;;;;;;13.81;48.09;99516.36;1680664;85;21264;-82
2023/12/01 05:58:48;;;;;;;16.75;12.40;;;;;;;13.88;48.03;99516.86;1634168;86;21287;-83
2023/12/01 06:01:55;;;;;;;19.27;14.13;;;;;;;13.89;48.00;99508.41;1645419;87;21351;-82
2023/12/01 06:05:04;;;;;;;14.45;11.68;;;;;;;14.30;47.11;99523.15;1675311;85;21853;-84
2023/12/01 06:08:09;;;;;;;21.75;13.20;;;;;;;14.87;46.27;99507.23;1674787;85;21300;-84
2023/12/01 06:11:15;;;;;;;18.15;12.18;;;;;;;14.82;46.14;99498.30;1675124;85;21300;-83
2023/12/01 06:14:22;;;;;;;18.92;12.65;;;;;;;14.70;46.37;99478.05;1686968;84;21287;-83
2023/12/01 06:17:28;;;;;;;16.95;11.85;;;;;;;14.49;47.00;99453.09;1651169;84;21323;-83
2023/12/01 06:20:34;;;;;;;21.85;13.65;;;;;;;13.88;48.06;99431.14;1699957;84;21881;-84
2023/12/01 06:23:40;;;;;;;24.43;13.38;;;;;;;14.10;48.12;99431.63;1671651;85;22019;-85
2023/12/01 06:26:45;;;;;;;22.30;13.18;;;;;;;14.13;48.02;99443.58;1651313;85;21338;-81
2023/12/01 06:29:52;;;;;;;19.60;13.65;;;;;;;14.09;48.40;99431.33;1692085;82;21315;-84
2023/12/01 06:32:58;;;;;;;18.52;12.93;;;;;;;13.93;48.54;99417.58;1705811;81;22052;-85
2023/12/01 06:36:04;;;;;;;17.48;12.00;;;;;;;13.97;48.49;99416.08;1689575;83;22345;-85
2023/12/01 06:39:10;;;;;;;16.42;11.57;;;;;;;13.86;49.06;99420.88;1697199;82;21275;-85
2023/12/01 06:42:17;;;;;;;16.97;11.90;;;;;;;13.97;48.96;99421.58;1693044;82;21857;-84
2023/12/01 06:45:28;;;;;;;14.95;11.18;;;;;;;14.23;48.42;99419.18;1702323;82;21283;-83
2023/12/01 06:48:32;;;;;;;15.60;10.60;;;;;;;14.05;48.90;99423.20;1702559;82;21287;-84
2023/12/01 06:51:37;;;;;;;18.07;10.43;;;;;;;14.32;48.53;99410.14;1696988;82;21422;-83
2023/12/01 06:54:43;;;;;;;15.48;10.70;;;;;;;14.67;47.80;99416.55;1703180;84;21579;-85
2023/12/01 06:57:51;;;;;;;16.95;10.65;;;;;;;14.27;48.62;99420.97;1699771;83;21316;-85
2023/12/01 07:00:56;;;;;;;14.45;10.40;;;;;;;14.56;48.13;99413.47;1694607;83;21260;-85
2023/12/01 07:04:07;;;;;;;14.38;10.43;;;;;;;14.56;48.02;99410.72;1694543;83;21263;-85
2023/12/01 07:07:16;;;;;;;13.38;9.88;;;;;;;14.50;47.87;99395.11;1691086;83;21204;-81
2023/12/01 07:10:14;;;;;;;16.80;10.10;;;;;;;14.59;47.62;99388.80;1693045;83;21264;-85
2023/12/01 07:13:19;;;;;;;16.27;9.65;;;;;;;14.63;47.59;99385.04;1691105;83;21842;-85
2023/12/01 07:16:26;;;;;;;12.80;9.23;;;;;;;14.75;47.36;99398.39;1691314;83;21296;-82
2023/12/01 07:19:33;;;;;;;14.40;10.00;;;;;;;14.46;47.93;99393.84;1697633;83;21278;-82
2023/12/01 07:22:39;;;;;;;13.15;9.40;;;;;;;14.71;47.23;99382.85;1654342;84;21350;-87
2023/12/01 07:25:50;;;;;;;15.38;10.28;;;;;;;14.66;47.47;99381.31;1630694;86;21314;-86
2023/12/01 07:28:55;;;;;;;15.40;10.13;;;;;;;14.65;47.62;99372.75;1656574;84;21274;-81
2023/12/01 07:32:01;;;;;;;16.27;9.85;;;;;;;14.78;47.39;99360.78;1645785;85;21300;-82
2023/12/01 07:35:09;;;;;;;20.05;10.20;;;;;;;14.66;47.57;99358.45;1686831;84;21845;-85
2023/12/01 07:38:16;;;;;;;16.45;10.28;;;;;;;14.19;48.73;99353.84;1678249;83;21263;-86
2023/12/01 07:41:22;;;;;;;17.65;9.93;;;;;;;14.36;48.42;99339.86;1676870;83;21299;-86
2023/12/01 07:44:28;;;;;;;17.50;10.35;;;;;;;14.96;47.36;99326.40;1674330;84;21311;-85
2023/12/01 07:47:33;;;;;;;17.73;10.10;;;;;;;14.72;47.77;99325.35;1675584;83;21356;-86
2023/12/01 07:50:40;;;;;;;16.45;9.25;;;;;;;15.00;47.19;99324.00;1668156;83;21327;-84
2023/12/01 07:53:46;;;;;;;14.85;8.98;;;;;;;14.93;47.22;99315.83;1674490;84;21290;-86
2023/12/01 07:56:52;;;;;;;13.43;8.78;;;;;;;15.11;46.91;99314.16;1669810;83;21873;-86
2023/12/01 07:59:58;;;;;;;15.35;8.45;;;;;;;14.94;47.16;99302.91;1676212;83;21287;-84
2023/12/01 08:03:05;;;;;;;14.78;9.23;;;;;;;14.91;47.28;99301.44;1673013;83;21997;-87
2023/12/01 08:06:11;;;;;;;12.20;8.48;;;;;;;14.81;47.62;99295.62;1681141;82;21287;-87
2023/12/01 08:09:17;;;;;;;12.00;8.50;;;;;;;14.82;47.58;99280.81;1674082;83;21291;-86
2023/12/01 08:12:25;;;;;;;17.20;9.05;;;;;;;14.86;47.45;99274.29;1673637;82;21752;-86
2023/12/01 08:15:32;;;;;;;15.88;8.78;;;;;;;14.75;47.75;99258.01;1668885;83;21287;-86
2023/12/01 08:18:40;;;;;;;15.13;8.98;;;;;;;15.02;47.25;99257.17;1674936;83;21310;-85
2023/12/01 08:21:47;;;;;;;15.05;8.50;;;;;;;14.92;47.33;99249.99;1674327;83;21279;-87
2023/12/01 08:24:54;;;;;;;13.05;8.28;;;;;;;14.65;48.08;99250.82;1675234;83;21309;-87
2023/12/01 08:28:00;;;;;;;11.33;6.97;;;;;;;14.62;48.32;99250.73;1666591;83;21208;-86
2023/12/01 08:31:07;;;;;;;12.58;7.75;;;;;;;14.91;47.94;99244.16;1686176;83;21884;-85
2023/12/01 08:34:14;;;;;;;12.68;7.80;;;;;;;14.89;47.97;99240.27;1702725;82;21300;-85
2023/12/01 08:37:21;;;;;;;11.45;8.00;;;;;;;15.05;47.91;99221.73;1702076;82;21345;-84
2023/12/01 08:40:28;;;;;;;11.73;7.70;;;;;;;15.22;47.41;99216.43;1706485;82;21314;-82
2023/12/01 08:43:37;;;;;;;12.80;7.72;;;;;;;15.01;47.74;99197.67;1695257;82;21208;-82
2023/12/01 08:46:45;;;;;;;11.50;7.25;;;;;;;15.32;47.11;99181.43;1692834;83;21196;-83
2023/12/01 08:49:54;;;;;;;14.55;8.28;;;;;;;15.35;47.16;99180.97;1693709;83;21299;-86
2023/12/01 08:53:05;;;;;;;10.50;7.22;;;;;;;15.37;47.03;99187.08;1694688;83;21227;-85
2023/12/01 08:56:13;;;;;;;10.85;7.12;;;;;;;15.58;46.75;99174.69;1693454;83;21916;-85
2023/12/01 08:59:20;;;;;;;10.70;7.42;;;;;;;15.57;46.94;99160.58;1681290;83;21849;-86
2023/12/01 09:02:29;;;;;;;12.00;5.70;;;;;;;15.65;46.63;99145.66;1698320;82;21293;-86
2023/12/01 09:05:29;;;;;;;11.97;7.10;;;;;;;16.23;45.86;99142.06;1657056;84;21334;-82
2023/12/01 09:08:36;;;;;;;12.58;7.12;;;;;;;16.28;45.75;99124.27;1697851;82;21342;-83
2023/12/01 09:11:43;;;;;;;12.88;6.78;;;;;;;16.29;45.81;99117.67;1702092;82;21848;-83
2023/12/01 09:14:50;;;;;;;9.58;6.08;;;;;;;16.28;46.31;99134.77;1701462;81;21354;-87
2023/12/01 09:17:56;;;;;;;11.50;7.03;;;;;;;16.09;46.83;99129.92;1696917;83;21963;-82
2023/12/01 09:21:02;;;;;;;10.85;6.45;;;;;;;16.81;45.49;99112.16;1690359;84;21335;-82
2023/12/01 09:24:09;;;;;;;9.85;6.53;;;;;;;17.37;44.53;99106.30;1704866;82;21289;-82
2023/12/01 09:27:17;;;;;;;12.80;6.40;;;;;;;17.45;44.37;99107.25;1704126;82;21567;-83
2023/12/01 09:30:22;;;;;;;10.15;6.35;;;;;;;16.36;46.53;99103.18;1694587;82;21315;-83
2023/12/01 09:33:30;;;;;;;11.73;6.10;;;;;;;17.45;45.17;99111.94;1691671;82;21284;-86
2023/12/01 09:36:36;;;;;;;8.95;5.58;;;;;;;16.64;46.52;99105.69;1670274;84;21316;-85
2023/12/01 09:39:43;;;;;;;14.40;6.67;;;;;;;17.26;45.67;99091.98;1682133;82;21955;-84
2023/12/01 09:42:50;;;;;;;10.98;5.25;;;;;;;17.15;46.07;99088.77;1683295;83;21299;-85
2023/12/01 09:46:02;;;;;;;11.25;6.40;;;;;;;17.15;46.33;99105.34;1694401;82;21946;-84
2023/12/01 09:49:11;;;;;;;8.33;5.62;;;;;;;17.63;45.68;99108.94;1683260;81;21346;-85
2023/12/01 09:52:17;;;;;;;11.68;6.55;;;;;;;17.65;45.67;99099.02;1687077;84;21917;-85
2023/12/01 09:55:23;;;;;;;16.23;6.05;;;;;;;17.50;46.22;99094.05;1656224;85;21336;-84
2023/12/01 09:58:32;;;;;;;13.85;6.97;;;;;;;17.69;45.70;99079.43;1682340;83;21347;-84
2023/12/01 10:01:40;;;;;;;11.55;6.22;;;;;;;17.33;46.68;99081.08;1687270;83;21375;-85
2023/12/01 10:04:48;;;;;;;8.75;5.67;;;;;;;17.80;46.08;99073.02;1661424;85;21304;-85
2023/12/01 10:07:56;;;;;;;13.55;7.03;;;;;;;18.03;45.61;99058.14;1683479;84;21366;-85
2023/12/01 10:11:03;;;;;;;8.85;6.60;;;;;;;18.00;46.37;99060.86;1687653;81;21935;-85
2023/12/01 10:14:14;;;;;;;9.60;6.45;;;;;;;18.17;46.06;99053.08;1685485;83;21264;-85
2023/12/01 10:17:20;;;;;;;10.13;5.70;;;;;;;17.95;46.42;99051.11;1668828;82;21864;-83
2023/12/01 10:20:27;;;;;;;9.75;6.08;;;;;;;17.99;46.67;99050.89;1672871;84;21849;-82
2023/12/01 10:23:33;;;;;;;16.00;6.78;;;;;;;17.98;46.34;99043.69;1676380;84;21829;-82
2023/12/01 10:26:41;;;;;;;11.40;6.45;;;;;;;17.80;47.19;99039.83;1695892;82;21310;-84
2023/12/01 10:29:47;;;;;;;19.98;11.60;;;;;;;18.20;47.09;99042.86;1689227;83;21299;-83
2023/12/01 10:32:54;;;;;;;19.62;9.43;;;;;;;18.32;46.84;99038.05;1686610;82;21322;-83
2023/12/01 10:36:14;;;;;;;15.23;8.08;;;;;;;18.64;46.45;99034.84;1698114;82;21200;-83
2023/12/01 10:39:20;;;;;;;19.33;8.83;;;;;;;18.57;46.64;99028.65;1675359;84;21679;-84
2023/12/01 10:42:28;;;;;;;15.58;7.95;;;;;;;18.85;46.47;99020.67;1688298;83;21188;-84
2023/12/01 10:45:34;;;;;;;18.23;10.63;;;;;;;19.64;45.55;99014.45;1695307;83;21770;-84
2023/12/01 10:48:40;;;;;;;17.45;10.03;;;;;;;19.13;45.47;99014.02;1691340;83;21322;-84
2023/12/01 10:51:47;;;;;;;13.05;8.20;;;;;;;18.98;47.06;99015.82;1653737;84;21866;-83
2023/12/01 10:54:52;;;;;;;23.60;12.03;;;;;;;18.27;48.64;99011.14;1627030;85;21227;-84
2023/12/01 10:57:59;;;;;;;24.40;12.35;;;;;;;18.69;48.35;99008.33;1689332;83;21912;-83
2023/12/01 11:01:05;;;;;;;25.00;10.63;;;;;;;19.00;48.20;99013.05;1663339;85;22260;-84
2023/12/01 11:04:12;;;;;;;17.65;9.90;;;;;;;19.22;47.69;99014.92;1689200;83;21870;-84
2023/12/01 11:08:00;;;;;;;16.52;7.90;;;;;;;18.72;48.90;99007.78;1689814;84;22140;-85
2023/12/01 11:11:21;;;;;;;13.60;7.80;;;;;;;18.94;48.76;99001.64;1693598;83;21311;-84
2023/12/01 11:14:31;;;;;;;17.85;8.73;;;;;;;19.26;48.62;98993.90;1688395;83;22019;-85
2023/12/01 11:17:38;;;;;;;21.10;9.50;;;;;;;19.26;48.82;98991.95;1691356;83;21350;-84
2023/12/01 11:20:48;;;;;;;18.85;7.75;;;;;;;19.43;48.84;98978.48;1690789;84;21312;-85
2023/12/01 11:23:54;;;;;;;20.90;7.92;;;;;;;20.13;47.65;98971.14;1698499;82;21267;-83
2023/12/01 11:27:00;;;;;;;13.55;7.78;;;;;;;19.89;47.66;98961.60;1704259;81;21291;-83
2023/12/01 11:30:12;;;;;;;19.45;8.83;;;;;;;20.31;47.26;98949.00;1708631;81;21307;-83
2023/12/01 11:33:19;;;;;;;17.73;9.08;;;;;;;20.25;47.41;98945.11;1698334;82;21303;-83
2023/12/01 11:36:43;;;;;;;24.07;8.63;;;;;;;20.14;47.98;98952.02;1680890;84;22115;-83
2023/12/01 11:39:50;;;;;;;14.50;7.33;;;;;;;20.47;47.37;98954.10;1644328;85;21161;-83
2023/12/01 11:42:58;;;;;;;17.40;8.15;;;;;;;20.49;47.52;98950.48;1675119;84;21877;-83
2023/12/01 11:46:10;;;;;;;17.77;10.15;;;;;;;20.41;47.60;98953.75;1668812;83;21286;-83
2023/12/01 11:49:16;;;;;;;19.57;9.15;;;;;;;20.40;47.63;98947.92;1676942;83;21603;-83
2023/12/01 11:52:24;;;;;;;15.88;8.58;;;;;;;20.10;48.10;98938.40;1674610;84;21316;-83
2023/12/01 11:55:32;;;;;;;14.65;8.05;;;;;;;20.09;48.39;98935.88;1673640;85;21291;-83
2023/12/01 11:58:38;;;;;;;23.98;8.75;;;;;;;20.23;47.95;98932.90;1674345;83;21325;-83
2023/12/01 12:01:43;;;;;;;18.50;8.40;;;;;;;20.40;47.67;98925.71;1671785;85;21304;-83
2023/12/01 12:04:54;;;;;;;18.17;8.33;;;;;;;20.46;47.63;98921.83;1657925;85;21288;-82
2023/12/01 12:26:54;;;;;;;18.98;9.53;;;;;;;14.94;68.96;98892.67;1830334;76;22196;-83
2023/12/01 12:30:01;;;;;;;22.07;9.53;;;;;;;14.66;69.49;98895.58;1801218;78;21283;-84
2023/12/01 12:33:07;;;;;;;21.62;9.80;;;;;;;14.74;69.78;98893.86;1743090;82;21256;-84
2023/12/01 12:36:14;;;;;;;19.65;9.35;;;;;;;14.75;69.49;98907.08;1731869;82;21285;-85
2023/12/01 12:39:21;;;;;;;22.60;9.95;;;;;;;14.89;69.66;98911.28;1770878;80;21705;-84
2023/12/01 12:42:32;;;;;;;31.55;11.90;;;;;;;14.24;71.54;98915.35;1739667;80;21299;-85
2023/12/01 12:45:38;;;;;;;25.17;11.08;;;;;;;14.21;71.97;98910.31;1734859;82;21958;-85
2023/12/01 12:48:46;;;;;;;23.55;10.95;;;;;;;14.68;70.55;98900.83;1775037;80;21291;-84
2023/12/01 12:51:52;;;;;;;28.42;10.98;;;;;;;14.91;69.94;98899.48;1751289;81;21258;-85
2023/12/01 12:54:58;;;;;;;25.43;10.80;;;;;;;14.94;69.74;98903.69;1749408;82;21303;-83
2023/12/01 12:58:04;;;;;;;20.65;9.85;;;;;;;14.89;69.76;98925.05;1747229;81;21287;-84
2023/12/01 13:01:10;;;;;;;26.70;10.90;;;;;;;14.84;70.00;98919.42;1753696;80;21306;-85
2023/12/01 13:04:17;;;;;;;21.73;11.80;;;;;;;15.05;70.39;98911.09;1749510;81;21898;-84
2023/12/01 13:07:23;;;;;;;20.95;10.85;;;;;;;14.49;71.33;98924.33;1735375;80;21856;-84
2023/12/01 13:10:29;;;;;;;24.77;11.43;;;;;;;14.75;70.61;98913.42;1767717;80;21272;-84
2023/12/01 13:13:35;;;;;;;30.70;13.22;;;;;;;14.77;70.59;98920.05;1749431;82;21715;-84
2023/12/01 13:16:42;;;;;;;22.42;13.03;;;;;;;15.11;69.67;98935.48;1745495;80;21290;-84
2023/12/01 13:19:49;;;;;;;19.73;12.43;;;;;;;15.04;68.97;98937.80;1751348;80;21938;-85
2023/12/01 13:22:56;;;;;;;28.45;11.88;;;;;;;14.73;70.25;98947.77;1750418;82;21303;-84
2023/12/01 13:26:02;;;;;;;23.47;12.73;;;;;;;14.57;70.37;98952.02;1742882;81;21296;-84
2023/12/01 13:29:12;;;;;;;25.80;12.37;;;;;;;14.54;70.77;98962.14;1783977;78;21252;-85
2023/12/01 13:32:17;;;;;;;29.25;13.38;;;;;;;14.38;71.45;98965.51;1796761;78;21257;-85
2023/12/01 13:35:22;;;;;;;29.00;13.05;;;;;;;14.57;70.44;98968.53;1786955;78;21283;-84
2023/12/01 13:38:28;;;;;;;24.23;11.93;;;;;;;14.41;71.12;98960.39;1795033;79;21296;-84
2023/12/01 13:41:34;;;;;;;31.02;14.45;;;;;;;14.51;70.93;98971.69;1786605;79;21269;-85
2023/12/01 13:44:41;;;;;;;35.15;15.03;;;;;;;14.40;70.82;98971.09;1782011;78;21337;-85
2023/12/01 13:47:47;;;;;;;33.23;15.38;;;;;;;14.73;69.78;98966.50;1786035;79;21238;-83
2023/12/01 13:50:53;;;;;;;34.98;14.65;;;;;;;14.74;69.63;98965.42;1793096;78;21331;-85
2023/12/01 13:54:01;;;;;;;28.75;14.40;;;;;;;14.98;68.96;98970.97;1763437;79;21321;-84
2023/12/01 13:57:07;;;;;;;34.65;14.85;;;;;;;14.59;70.01;98971.07;1782648;79;21873;-84
2023/12/01 14:00:15;;;;;;;24.90;13.30;;;;;;;14.41;71.20;98978.80;1801544;79;21301;-85
2023/12/01 14:03:22;;;;;;;27.07;13.60;;;;;;;14.51;70.74;98990.11;1802171;78;21274;-84
2023/12/01 14:06:30;;;;;;;34.48;14.87;;;;;;;14.47;70.83;98997.13;1783706;79;22009;-85
2023/12/01 14:09:36;;;;;;;27.42;13.65;;;;;;;14.20;71.58;99000.76;1770839;81;21860;-85
2023/12/01 14:12:42;;;;;;;29.82;13.72;;;;;;;14.46;70.61;99001.78;1778960;79;21301;-84
2023/12/01 14:15:49;;;;;;;27.10;13.40;;;;;;;14.30;71.31;99005.17;1768955;81;21765;-85
2023/12/01 14:18:55;;;;;;;24.30;14.38;;;;;;;14.90;69.29;99003.80;1812417;79;21836;-83
2023/12/01 14:22:01;;;;;;;33.42;14.03;;;;;;;14.25;71.57;99009.16;1819487;79;21259;-84
2023/12/01 14:25:09;;;;;;;33.67;13.80;;;;;;;14.24;71.12;99011.61;1819193;79;21936;-84
2023/12/01 14:28:14;;;;;;;27.73;13.53;;;;;;;14.45;70.18;99010.28;1817588;79;21293;-86
2023/12/01 14:31:22;;;;;;;29.72;15.32;;;;;;;15.04;68.35;99019.57;1735869;82;21347;-85
2023/12/01 14:34:27;;;;;;;39.80;16.02;;;;;;;14.83;69.33;99010.80;1806105;79;21297;-85
2023/12/01 14:37:28;;;;;;;29.10;14.53;;;;;;;14.72;69.50;99016.25;1799214;79;21297;-84
2023/12/01 14:40:20;;;;;;;34.18;16.50;;;;;;;14.74;69.82;99009.45;1802876;79;21857;-84